createdAt,value
2022-11-27T00:01:28.151Z,85.24
2022-11-27T00:03:56.420Z,85.78
2022-11-27T00:06:26.071Z,86.37
2022-11-27T00:08:55.503Z,86.49
2022-11-27T00:11:24.606Z,86.83
2022-11-27T00:13:52.588Z,86.65
2022-11-27T00:16:21.676Z,85.55
2022-11-27T00:18:50.357Z,85.33
2022-11-27T00:21:19.378Z,84.62
2022-11-27T00:23:46.957Z,84.66
2022-11-27T00:26:15.202Z,85.65
2022-11-27T00:28:42.754Z,85.33
2022-11-27T00:31:22.831Z,86.20
2022-11-27T00:33:55.241Z,86.31
2022-11-27T00:36:23.391Z,86.12
2022-11-27T00:38:51.856Z,85.67
2022-11-27T00:41:24.372Z,85.55
2022-11-27T00:43:53.210Z,85.39
2022-11-27T00:46:28.015Z,84.91
2022-11-27T00:49:01.667Z,84.58
2022-11-27T00:51:29.386Z,85.15
2022-11-27T00:53:58.403Z,85.40
2022-11-27T00:56:28.476Z,85.41
2022-11-27T00:58:56.470Z,84.96
2022-11-27T01:01:29.812Z,85.06
2022-11-27T01:03:58.903Z,83.96
2022-11-27T01:06:28.053Z,84.36
2022-11-27T01:08:55.981Z,84.75
2022-11-27T01:11:29.799Z,84.69
2022-11-27T01:14:00.543Z,84.79
2022-11-27T01:16:29.887Z,83.82
2022-11-27T01:18:59.350Z,83.52
2022-11-27T01:21:29.412Z,83.49
2022-11-27T01:23:57.034Z,82.37
2022-11-27T01:26:25.143Z,82.90
2022-11-27T01:28:53.933Z,83.69
2022-11-27T01:31:24.142Z,84.70
2022-11-27T01:33:54.077Z,84.97
2022-11-27T01:36:23.315Z,84.61
2022-11-27T01:38:51.238Z,85.63
2022-11-27T01:41:22.158Z,85.24
2022-11-27T01:43:51.434Z,85.16
2022-11-27T01:46:33.192Z,85.00
2022-11-27T01:49:20.878Z,84.61
2022-11-27T01:51:58.523Z,84.86
2022-11-27T01:54:37.572Z,84.58
2022-11-27T01:57:11.795Z,84.32
2022-11-27T01:59:39.637Z,84.86
2022-11-27T02:02:07.744Z,85.26
2022-11-27T02:04:35.761Z,85.29
2022-11-27T02:07:03.782Z,84.91
2022-11-27T02:09:32.723Z,84.99
2022-11-27T02:12:22.740Z,85.13
2022-11-27T02:15:02.942Z,84.52
2022-11-27T02:17:55.150Z,84.70
2022-11-27T02:20:44.255Z,85.16
2022-11-27T02:23:29.844Z,84.58
2022-11-27T02:26:15.647Z,84.71
2022-11-27T02:29:02.460Z,84.44
2022-11-27T02:31:57.469Z,84.70
2022-11-27T02:34:33.510Z,85.48
2022-11-27T02:37:20.346Z,86.08
2022-11-27T02:40:05.254Z,85.78
2022-11-27T02:42:41.193Z,85.04
2022-11-27T02:45:14.471Z,85.22
2022-11-27T02:47:44.274Z,85.46
2022-11-27T02:50:20.875Z,85.29
2022-11-27T02:52:50.797Z,85.71
2022-11-27T02:55:24.736Z,85.36
2022-11-27T02:57:56.163Z,84.07
2022-11-27T03:00:24.021Z,83.86
2022-11-27T03:02:56.601Z,84.36
2022-11-27T03:05:28.452Z,85.18
2022-11-27T03:08:01.289Z,85.30
2022-11-27T03:10:34.090Z,84.59
2022-11-27T03:13:02.805Z,85.16
2022-11-27T03:16:07.963Z,85.42
2022-11-27T03:18:41.970Z,85.23
2022-11-27T03:21:36.255Z,85.43
2022-11-27T03:24:05.466Z,85.83
2022-11-27T03:26:33.393Z,85.96
2022-11-27T03:29:03.488Z,85.96
2022-11-27T03:31:32.262Z,85.38
2022-11-27T03:34:00.079Z,85.15
2022-11-27T03:36:27.758Z,85.87
2022-11-27T03:38:55.858Z,86.05
2022-11-27T03:41:42.071Z,87.01
2022-11-27T03:44:29.225Z,87.79
2022-11-27T03:47:02.690Z,86.10
2022-11-27T03:49:41.017Z,85.98
2022-11-27T03:52:18.260Z,86.31
2022-11-27T03:54:53.345Z,86.29
2022-11-27T03:57:29.538Z,85.87
2022-11-27T04:00:00.915Z,84.89
2022-11-27T04:02:39.135Z,85.77
2022-11-27T04:05:07.310Z,88.24
2022-11-27T04:07:35.096Z,88.80
2022-11-27T04:10:03.958Z,88.32
2022-11-27T04:12:32.203Z,87.25
2022-11-27T04:15:05.985Z,86.89
2022-11-27T04:17:33.928Z,86.63
2022-11-27T04:20:01.726Z,85.91
2022-11-27T04:22:29.892Z,85.87
2022-11-27T04:24:57.904Z,86.78
2022-11-27T04:27:25.564Z,86.84
2022-11-27T04:29:53.221Z,87.34
2022-11-27T04:32:21.175Z,87.95
2022-11-27T04:34:48.838Z,88.28
2022-11-27T04:37:16.647Z,87.64
2022-11-27T04:39:44.545Z,87.96
2022-11-27T04:42:12.128Z,88.03
2022-11-27T04:44:40.072Z,86.81
2022-11-27T04:47:08.154Z,86.21
2022-11-27T04:49:35.859Z,86.47
2022-11-27T04:52:03.643Z,87.56
2022-11-27T04:54:31.472Z,87.72
2022-11-27T04:56:59.089Z,87.80
2022-11-27T04:59:26.750Z,87.88
2022-11-27T05:01:54.639Z,86.18
2022-11-27T05:04:22.601Z,87.02
2022-11-27T05:06:50.331Z,85.61
2022-11-27T05:09:18.245Z,85.22
2022-11-27T05:11:45.828Z,85.01
2022-11-27T05:14:13.513Z,84.18
2022-11-27T05:16:42.496Z,84.10
2022-11-27T05:19:10.834Z,84.76
2022-11-27T05:21:38.518Z,85.19
2022-11-27T05:24:06.871Z,84.99
2022-11-27T05:26:34.675Z,84.90
2022-11-27T05:29:02.826Z,84.88
2022-11-27T05:31:30.786Z,85.50
2022-11-27T05:33:58.471Z,84.81
2022-11-27T05:36:26.314Z,84.67
2022-11-27T05:38:54.337Z,85.35
2022-11-27T05:41:22.421Z,85.06
2022-11-27T05:43:50.068Z,85.16
2022-11-27T05:46:22.149Z,84.72
2022-11-27T05:48:50.245Z,84.16
2022-11-27T05:51:18.590Z,84.49
2022-11-27T05:53:46.213Z,84.53
2022-11-27T05:56:16.021Z,84.58
2022-11-27T05:58:45.636Z,84.37
2022-11-27T06:01:14.771Z,84.18
2022-11-27T06:03:42.788Z,83.20
2022-11-27T06:06:16.498Z,82.83
2022-11-27T06:08:45.051Z,83.36
2022-11-27T06:11:15.464Z,82.70
2022-11-27T06:13:43.517Z,82.98
2022-11-27T06:16:15.959Z,83.38
2022-11-27T06:18:44.232Z,83.50
2022-11-27T06:21:14.347Z,83.39
2022-11-27T06:23:43.107Z,84.00
2022-11-27T06:26:19.160Z,83.64
2022-11-27T06:28:48.125Z,84.07
2022-11-27T06:31:19.830Z,83.35
2022-11-27T06:33:49.160Z,83.10
2022-11-27T06:36:19.454Z,83.75
2022-11-27T06:38:47.530Z,83.01
2022-11-27T06:41:18.021Z,82.77
2022-11-27T06:43:45.678Z,82.88
2022-11-27T06:46:21.804Z,83.42
2022-11-27T06:48:51.267Z,84.01
2022-11-27T06:51:21.967Z,83.77
2022-11-27T06:53:50.355Z,83.93
2022-11-27T06:56:20.154Z,83.86
2022-11-27T06:58:51.971Z,83.61
2022-11-27T07:01:23.539Z,83.35
2022-11-27T07:03:51.738Z,83.61
2022-11-27T07:06:21.402Z,83.87
2022-11-27T07:08:49.578Z,83.44
2022-11-27T07:11:26.439Z,82.82
2022-11-27T07:13:56.310Z,82.57
2022-11-27T07:16:24.539Z,83.13
2022-11-27T07:18:54.875Z,83.14
2022-11-27T07:21:22.768Z,82.52
2022-11-27T07:23:50.962Z,82.58
2022-11-27T07:26:23.246Z,82.41
2022-11-27T07:28:51.506Z,82.78
2022-11-27T07:31:21.483Z,83.03
2022-11-27T07:33:49.674Z,83.15
2022-11-27T07:36:20.877Z,83.07
2022-11-27T07:38:49.498Z,83.09
2022-11-27T07:41:17.955Z,83.42
2022-11-27T07:43:45.786Z,83.78
2022-11-27T07:46:21.773Z,84.43
2022-11-27T07:48:50.019Z,85.55
2022-11-27T07:51:20.016Z,86.31
2022-11-27T07:53:47.838Z,86.59
2022-11-27T07:56:16.131Z,86.16
2022-11-27T07:58:44.345Z,85.58
2022-11-27T08:01:16.913Z,85.59
2022-11-27T08:03:45.387Z,85.92
2022-11-27T08:06:18.040Z,86.17
2022-11-27T08:08:46.290Z,86.44
2022-11-27T08:11:22.353Z,86.40
2022-11-27T08:13:51.113Z,85.57
2022-11-27T08:16:18.743Z,83.92
2022-11-27T08:18:46.602Z,84.57
2022-11-27T08:21:15.099Z,84.98
2022-11-27T08:23:42.739Z,85.76
2022-11-27T08:26:11.559Z,86.04
2022-11-27T08:28:40.152Z,85.59
2022-11-27T08:31:09.356Z,85.37
2022-11-27T08:33:37.155Z,84.54
2022-11-27T08:36:07.306Z,85.31
2022-11-27T08:38:36.747Z,84.26
2022-11-27T08:41:05.912Z,83.47
2022-11-27T08:43:34.396Z,83.97
2022-11-27T08:46:06.197Z,83.50
2022-11-27T08:48:34.319Z,83.01
2022-11-27T08:51:10.611Z,83.05
2022-11-27T08:53:38.941Z,83.83
2022-11-27T08:56:15.735Z,83.59
2022-11-27T08:58:44.415Z,83.45
2022-11-27T09:01:17.870Z,83.33
2022-11-27T09:03:46.456Z,83.87
2022-11-27T09:06:17.127Z,83.96
2022-11-27T09:08:45.147Z,83.79
2022-11-27T09:11:14.667Z,82.93
2022-11-27T09:13:42.551Z,82.75
2022-11-27T09:16:12.907Z,83.67
2022-11-27T09:18:43.386Z,82.73
2022-11-27T09:21:12.103Z,82.84
2022-11-27T09:23:40.259Z,83.23
2022-11-27T09:26:14.059Z,82.90
2022-11-27T09:28:42.506Z,82.92
2022-11-27T09:31:12.789Z,83.24
2022-11-27T09:33:41.387Z,83.12
2022-11-27T09:36:11.725Z,83.20
2022-11-27T09:38:39.750Z,83.35
2022-11-27T09:41:30.685Z,83.61
2022-11-27T09:44:00.987Z,84.32
2022-11-27T09:46:36.538Z,83.61
2022-11-27T09:49:09.283Z,83.07
2022-11-27T09:51:42.750Z,83.10
2022-11-27T09:54:31.730Z,82.85
2022-11-27T09:56:59.506Z,83.25
2022-11-27T09:59:50.802Z,82.88
2022-11-27T10:02:33.225Z,83.82
2022-11-27T10:05:13.811Z,83.27
2022-11-27T10:08:06.329Z,83.63
2022-11-27T10:10:39.287Z,83.73
2022-11-27T10:13:21.921Z,83.19
2022-11-27T10:16:11.028Z,84.42
2022-11-27T10:18:38.757Z,85.26
2022-11-27T10:21:23.858Z,84.60
2022-11-27T10:24:00.796Z,83.71
2022-11-27T10:26:33.963Z,83.44
2022-11-27T10:29:13.825Z,83.85
2022-11-27T10:31:54.436Z,84.20
2022-11-27T10:34:34.329Z,83.87
2022-11-27T10:37:07.735Z,82.87
2022-11-27T10:39:38.892Z,82.80
2022-11-27T10:42:10.928Z,82.52
2022-11-27T10:44:49.009Z,84.26
2022-11-27T10:47:18.888Z,84.67
2022-11-27T10:49:48.472Z,84.36
2022-11-27T10:52:18.883Z,85.01
2022-11-27T10:54:54.689Z,84.28
2022-11-27T10:57:25.312Z,82.77
2022-11-27T11:00:14.055Z,83.26
2022-11-27T11:02:41.666Z,84.36
2022-11-27T11:06:04.589Z,84.20
2022-11-27T11:08:19.342Z,84.86
2022-11-27T11:10:57.707Z,84.00
2022-11-27T11:13:27.585Z,84.18
2022-11-27T11:16:03.725Z,83.49
2022-11-27T11:18:34.363Z,83.65
2022-11-27T11:21:04.604Z,84.78
2022-11-27T11:23:34.982Z,83.80
2022-11-27T11:26:07.417Z,83.99
2022-11-27T11:28:45.714Z,83.96
2022-11-27T11:31:21.817Z,85.72
2022-11-27T11:33:57.119Z,84.41
2022-11-27T11:36:25.131Z,83.81
2022-11-27T11:38:53.253Z,83.26
2022-11-27T11:41:21.230Z,83.45
2022-11-27T11:43:57.533Z,84.15
2022-11-27T11:46:28.058Z,84.20
2022-11-27T11:49:17.411Z,83.61
2022-11-27T11:51:54.101Z,83.96
2022-11-27T11:54:46.524Z,83.87
2022-11-27T11:57:42.499Z,83.56
2022-11-27T12:00:14.807Z,83.23
2022-11-27T12:02:45.832Z,84.42
2022-11-27T12:05:19.287Z,83.64
2022-11-27T12:08:03.468Z,83.58
2022-11-27T12:10:48.165Z,83.56
2022-11-27T12:13:33.323Z,83.88
2022-11-27T12:16:20.301Z,82.58
2022-11-27T12:19:20.506Z,83.29
2022-11-27T12:22:06.939Z,83.95
2022-11-27T12:24:43.521Z,83.82
2022-11-27T12:27:29.438Z,83.47
2022-11-27T12:30:35.701Z,83.26
2022-11-27T12:33:09.548Z,83.07
2022-11-27T12:36:08.477Z,83.19
2022-11-27T12:38:53.579Z,82.49
2022-11-27T12:41:21.492Z,82.29
2022-11-27T12:43:53.208Z,82.09
2022-11-27T12:46:27.039Z,81.96
2022-11-27T12:49:06.092Z,82.35
2022-11-27T12:51:48.252Z,82.33
2022-11-27T12:54:22.938Z,81.91
2022-11-27T12:56:54.412Z,82.14
2022-11-27T12:59:29.330Z,81.96
2022-11-27T13:02:01.764Z,82.32
2022-11-27T13:04:39.862Z,82.00
2022-11-27T13:07:21.560Z,82.94
2022-11-27T13:10:09.798Z,83.23
2022-11-27T13:12:43.412Z,82.42
2022-11-27T13:15:22.302Z,83.42
2022-11-27T13:17:54.383Z,83.70
2022-11-27T13:20:27.313Z,82.06
2022-11-27T13:22:55.462Z,82.82
2022-11-27T13:25:25.005Z,82.55
2022-11-27T13:27:56.076Z,82.09
2022-11-27T13:30:30.504Z,82.27
2022-11-27T13:33:00.011Z,83.23
2022-11-27T13:35:28.452Z,83.52
2022-11-27T13:38:16.968Z,83.35
2022-11-27T13:40:50.797Z,82.78
2022-11-27T13:43:24.540Z,81.88
2022-11-27T13:46:01.487Z,82.13
2022-11-27T13:48:32.837Z,81.55
2022-11-27T13:51:01.220Z,82.46
2022-11-27T13:53:40.240Z,81.46
2022-11-27T13:56:09.242Z,81.41
2022-11-27T13:58:42.456Z,82.54
2022-11-27T14:01:19.028Z,81.80
2022-11-27T14:03:47.553Z,80.29
2022-11-27T14:06:26.684Z,80.74
2022-11-27T14:09:00.721Z,81.67
2022-11-27T14:11:48.336Z,83.43
2022-11-27T14:14:23.582Z,82.96
2022-11-27T14:17:02.190Z,82.31
2022-11-27T14:19:47.191Z,82.41
2022-11-27T14:22:34.289Z,83.12
2022-11-27T14:25:02.997Z,83.10
2022-11-27T14:27:35.141Z,82.98
2022-11-27T14:30:34.647Z,81.21
2022-11-27T14:33:04.002Z,81.18
2022-11-27T14:35:33.296Z,82.06
2022-11-27T14:38:11.051Z,81.14
2022-11-27T14:40:39.178Z,81.94
2022-11-27T14:43:13.640Z,81.14
2022-11-27T14:45:46.854Z,81.80
2022-11-27T14:48:23.879Z,81.16
2022-11-27T14:50:55.001Z,81.53
2022-11-27T14:53:24.410Z,81.55
2022-11-27T14:55:55.246Z,80.87
2022-11-27T14:58:25.785Z,81.89
2022-11-27T15:01:05.669Z,81.62
2022-11-27T15:03:33.792Z,81.94
2022-11-27T15:06:04.171Z,81.63
2022-11-27T15:08:34.791Z,81.47
2022-11-27T15:11:04.753Z,82.08
2022-11-27T15:13:34.710Z,82.06
2022-11-27T15:16:18.630Z,81.57
2022-11-27T15:18:57.135Z,81.26
2022-11-27T15:21:26.530Z,83.23
2022-11-27T15:23:55.788Z,82.53
2022-11-27T15:26:38.548Z,81.70
2022-11-27T15:29:37.724Z,82.27
2022-11-27T15:32:24.154Z,82.45
2022-11-27T15:34:53.610Z,83.17
2022-11-27T15:37:23.989Z,83.36
2022-11-27T15:39:55.334Z,83.50
2022-11-27T15:42:23.931Z,83.05
2022-11-27T15:44:55.366Z,82.65
2022-11-27T15:47:38.578Z,82.93
2022-11-27T15:50:13.085Z,83.61
2022-11-27T15:52:41.004Z,84.18
2022-11-27T15:55:13.975Z,83.41
2022-11-27T15:57:42.208Z,82.76
2022-11-27T16:00:14.063Z,82.16
2022-11-27T16:02:42.105Z,82.62
2022-11-27T16:05:10.008Z,82.74
2022-11-27T16:07:38.031Z,81.83
2022-11-27T16:10:08.627Z,81.76
2022-11-27T16:12:36.835Z,82.55
2022-11-27T16:15:06.516Z,82.57
2022-11-27T16:17:34.596Z,82.87
2022-11-27T16:20:03.546Z,82.13
2022-11-27T16:22:32.602Z,82.61
2022-11-27T16:25:00.464Z,82.46
2022-11-27T16:27:28.357Z,82.26
2022-11-27T16:29:57.117Z,82.41
2022-11-27T16:32:25.314Z,82.36
2022-11-27T16:34:53.059Z,82.32
2022-11-27T16:37:20.951Z,81.83
2022-11-27T16:39:49.204Z,82.26
2022-11-27T16:42:17.204Z,82.52
2022-11-27T16:44:46.090Z,83.03
2022-11-27T16:47:14.714Z,82.20
2022-11-27T16:49:48.407Z,82.62
2022-11-27T16:52:19.224Z,82.76
2022-11-27T16:54:46.932Z,82.64
2022-11-27T16:57:14.928Z,83.11
2022-11-27T17:02:36.604Z,83.14
2022-11-27T17:05:05.028Z,83.18
2022-11-27T17:07:32.745Z,82.84
2022-11-27T17:10:02.490Z,83.00
2022-11-27T17:12:32.725Z,82.47
2022-11-27T17:15:00.632Z,82.14
2022-11-27T17:17:28.349Z,82.32
2022-11-27T17:19:56.686Z,82.35
2022-11-27T17:22:24.680Z,82.36
2022-11-27T17:24:53.553Z,82.75
2022-11-27T17:27:22.202Z,82.69
2022-11-27T17:29:51.624Z,82.93
2022-11-27T17:32:19.770Z,81.91
2022-11-27T17:34:49.182Z,82.81
2022-11-27T17:37:17.216Z,82.41
2022-11-27T17:39:44.965Z,82.23
2022-11-27T17:43:23.582Z,82.49
2022-11-27T17:45:51.625Z,82.25
2022-11-27T17:48:21.053Z,81.98
2022-11-27T17:50:51.124Z,82.55
2022-11-27T17:53:19.641Z,81.83
2022-11-27T17:55:51.049Z,81.94
2022-11-27T17:58:19.314Z,81.91
2022-11-27T18:00:48.809Z,81.20
2022-11-27T18:03:17.495Z,81.75
2022-11-27T18:05:45.406Z,81.83
2022-11-27T18:08:13.291Z,82.42
2022-11-27T18:10:42.010Z,82.45
2022-11-27T18:13:09.939Z,82.28
2022-11-27T18:15:40.810Z,82.07
2022-11-27T18:18:09.104Z,82.05
2022-11-27T18:20:37.147Z,82.03
2022-11-27T18:23:11.638Z,80.41
2022-11-27T18:25:46.073Z,81.11
2022-11-27T18:28:16.859Z,82.05
2022-11-27T18:30:45.109Z,81.77
2022-11-27T18:33:13.047Z,81.83
2022-11-27T18:35:42.270Z,82.66
2022-11-27T18:38:10.484Z,82.34
2022-11-27T18:40:38.946Z,81.88
2022-11-27T18:43:33.317Z,82.14
2022-11-27T18:45:59.574Z,82.66
2022-11-27T18:48:27.860Z,81.69
2022-11-27T18:51:22.690Z,82.36
2022-11-27T18:53:51.401Z,82.81
2022-11-27T18:56:24.523Z,82.00
2022-11-27T18:58:56.503Z,82.27
2022-11-27T19:01:28.418Z,82.27
2022-11-27T19:03:59.584Z,81.60
2022-11-27T19:06:28.453Z,81.00
2022-11-27T19:08:58.150Z,81.42
2022-11-27T19:11:27.096Z,81.58
2022-11-27T19:13:59.354Z,81.52
2022-11-27T19:16:33.527Z,82.11
2022-11-27T19:19:03.714Z,82.39
2022-11-27T19:21:33.026Z,81.81
2022-11-27T19:24:03.110Z,83.01
2022-11-27T19:26:34.178Z,82.11
2022-11-27T19:29:04.740Z,81.72
2022-11-27T19:31:35.797Z,82.70
2022-11-27T19:34:05.386Z,82.44
2022-11-27T19:36:35.697Z,82.74
2022-11-27T19:39:06.836Z,82.84
2022-11-27T19:41:35.180Z,83.52
2022-11-27T19:44:05.087Z,83.21
2022-11-27T19:46:36.232Z,82.78
2022-11-27T19:49:07.357Z,83.54
2022-11-27T19:51:37.093Z,83.66
2022-11-27T19:54:09.879Z,82.96
2022-11-27T19:56:40.473Z,83.03
2022-11-27T19:59:09.856Z,83.27
2022-11-27T20:01:39.944Z,82.61
2022-11-27T20:04:12.723Z,82.81
2022-11-27T20:06:41.300Z,82.44
2022-11-27T20:09:10.662Z,82.08
2022-11-27T20:11:40.902Z,82.21
2022-11-27T20:14:11.101Z,81.60
2022-11-27T20:16:38.772Z,82.21
2022-11-27T20:19:06.788Z,82.62
2022-11-27T20:21:35.355Z,82.31
2022-11-27T20:24:04.204Z,82.60
2022-11-27T20:26:37.089Z,82.20
2022-11-27T20:29:16.266Z,82.52
2022-11-27T20:31:44.690Z,83.08
2022-11-27T20:34:21.149Z,82.45
2022-11-27T20:36:49.576Z,82.76
2022-11-27T20:39:21.691Z,83.42
2022-11-27T20:41:51.394Z,84.66
2022-11-27T20:44:20.469Z,83.89
2022-11-27T20:46:48.969Z,83.89
2022-11-27T20:49:18.444Z,83.77
2022-11-27T20:51:46.421Z,83.48
2022-11-27T20:54:14.892Z,84.17
2022-11-27T20:56:43.638Z,83.88
2022-11-27T20:59:12.201Z,84.33
2022-11-27T21:01:40.556Z,85.07
2022-11-27T21:04:21.894Z,85.01
2022-11-27T21:06:50.558Z,84.58
2022-11-27T21:09:20.409Z,83.66
2022-11-27T21:11:48.556Z,84.28
2022-11-27T21:14:17.355Z,83.73
2022-11-27T21:16:49.068Z,83.97
2022-11-27T21:19:26.281Z,84.37
2022-11-27T21:21:56.003Z,84.15
2022-11-27T21:24:24.617Z,84.86
2022-11-27T21:26:52.602Z,84.20
2022-11-27T21:29:21.021Z,84.49
2022-11-27T21:31:51.632Z,85.07
2022-11-27T21:34:19.358Z,85.58
2022-11-27T21:36:46.964Z,85.81
2022-11-27T21:39:15.582Z,85.09
2022-11-27T21:41:44.243Z,86.63
2022-11-27T21:44:12.029Z,86.89
2022-11-27T21:46:39.945Z,86.58
2022-11-27T21:49:07.808Z,85.49
2022-11-27T21:51:35.678Z,85.72
2022-11-27T21:54:07.092Z,87.24
2022-11-27T21:56:34.710Z,86.72
2022-11-27T21:59:02.546Z,85.96
2022-11-27T22:01:31.000Z,86.09
2022-11-27T22:03:58.912Z,86.77
2022-11-27T22:06:29.021Z,87.02
2022-11-27T22:08:58.561Z,86.30
2022-11-27T22:11:28.242Z,86.95
2022-11-27T22:14:02.650Z,86.51
2022-11-27T22:16:34.099Z,85.81
2022-11-27T22:19:02.298Z,86.11
2022-11-27T22:21:33.121Z,87.15
2022-11-27T22:24:00.984Z,87.69
2022-11-27T22:26:28.705Z,88.08
2022-11-27T22:28:59.279Z,87.37
2022-11-27T22:31:29.706Z,88.21
2022-11-27T22:33:57.876Z,87.60
2022-11-27T22:36:35.163Z,87.36
2022-11-27T22:39:05.928Z,87.65
2022-11-27T22:41:36.510Z,88.30
2022-11-27T22:44:17.128Z,87.59
2022-11-27T22:46:45.246Z,87.27
2022-11-27T22:49:15.940Z,87.63
2022-11-27T22:51:44.700Z,87.77
2022-11-27T22:54:14.778Z,87.35
2022-11-27T22:56:44.730Z,87.45
2022-11-27T23:02:01.500Z,87.17
2022-11-27T23:04:29.239Z,86.18
2022-11-27T23:06:58.155Z,86.54
2022-11-27T23:09:26.595Z,86.09
2022-11-27T23:11:54.278Z,85.63
2022-11-27T23:14:21.936Z,86.60
2022-11-27T23:16:49.992Z,87.12
2022-11-27T23:19:17.730Z,86.48
2022-11-27T23:21:45.460Z,86.48
2022-11-27T23:24:14.063Z,86.58
2022-11-27T23:26:42.211Z,86.99
2022-11-27T23:29:09.870Z,86.32
2022-11-27T23:31:39.045Z,86.43
2022-11-27T23:34:09.448Z,87.14
2022-11-27T23:36:37.319Z,87.02
2022-11-27T23:39:06.159Z,87.12
2022-11-27T23:41:34.154Z,87.21
2022-11-27T23:44:02.052Z,87.77
2022-11-27T23:46:30.447Z,87.82
2022-11-27T23:48:59.689Z,88.38
2022-11-27T23:51:30.455Z,87.60
2022-11-27T23:53:59.078Z,87.70
2022-11-27T23:56:29.142Z,88.03
2022-11-27T23:58:57.572Z,88.40
